createdAt,value
2023-05-09T00:00:19.613Z,242.83
2023-05-09T00:01:19.660Z,244.12
2023-05-09T00:02:19.752Z,244.37
2023-05-09T00:03:19.759Z,243.89
2023-05-09T00:04:19.867Z,243.35
2023-05-09T00:05:19.839Z,242.55
2023-05-09T00:06:19.933Z,243.22
2023-05-09T00:07:19.802Z,242.89
2023-05-09T00:08:19.865Z,243.57
2023-05-09T00:09:19.859Z,243.45
2023-05-09T00:10:19.941Z,243.36
2023-05-09T00:11:19.919Z,243.39
2023-05-09T00:12:19.954Z,243.71
2023-05-09T00:13:20.063Z,242.90
2023-05-09T00:14:20.004Z,243.59
2023-05-09T00:15:20.052Z,242.21
2023-05-09T00:16:20.116Z,242.89
2023-05-09T00:17:20.108Z,243.02
2023-05-09T00:18:20.155Z,241.64
2023-05-09T00:19:20.160Z,241.22
2023-05-09T00:20:20.193Z,241.66
2023-05-09T00:21:20.329Z,241.78
2023-05-09T00:22:20.314Z,242.19
2023-05-09T00:23:20.343Z,243.48
2023-05-09T00:24:20.386Z,243.83
2023-05-09T00:25:20.440Z,242.90
2023-05-09T00:26:20.494Z,243.58
2023-05-09T00:27:20.555Z,242.88
2023-05-09T00:28:20.618Z,242.42
2023-05-09T00:29:20.630Z,242.26
2023-05-09T00:30:20.672Z,241.55
2023-05-09T00:31:20.667Z,241.57
2023-05-09T00:32:20.760Z,243.02
2023-05-09T00:33:20.766Z,243.83
2023-05-09T00:34:20.801Z,242.15
2023-05-09T00:35:20.809Z,242.99
2023-05-09T00:36:20.882Z,243.63
2023-05-09T00:37:20.978Z,242.59
2023-05-09T00:38:20.916Z,242.88
2023-05-09T00:39:20.997Z,242.83
2023-05-09T00:40:21.017Z,242.88
2023-05-09T00:41:21.008Z,242.33
2023-05-09T00:42:21.052Z,243.32
2023-05-09T00:43:21.081Z,242.74
2023-05-09T00:44:21.147Z,242.90
2023-05-09T00:45:21.146Z,241.92
2023-05-09T00:46:21.234Z,242.08
2023-05-09T00:47:21.290Z,241.43
2023-05-09T00:48:21.222Z,241.42
2023-05-09T00:49:21.278Z,242.64
2023-05-09T00:50:21.286Z,242.22
2023-05-09T00:51:21.359Z,243.50
2023-05-09T00:52:21.407Z,243.08
2023-05-09T00:53:21.468Z,243.56
2023-05-09T00:54:21.407Z,242.73
2023-05-09T00:55:21.443Z,243.55
2023-05-09T00:56:21.461Z,243.70
2023-05-09T00:57:21.590Z,243.19
2023-05-09T00:58:21.546Z,242.42
2023-05-09T00:59:21.600Z,241.13
2023-05-09T01:00:21.917Z,241.67
2023-05-09T01:01:21.777Z,240.20
2023-05-09T01:02:21.814Z,240.31
2023-05-09T01:03:21.852Z,241.04
2023-05-09T01:04:21.799Z,241.11
2023-05-09T01:05:21.798Z,240.94
2023-05-09T01:06:21.838Z,241.89
2023-05-09T01:07:22.057Z,242.21
2023-05-09T01:08:21.930Z,240.94
2023-05-09T01:09:22.057Z,243.40
2023-05-09T01:10:21.997Z,240.46
2023-05-09T01:11:22.080Z,241.86
2023-05-09T01:12:22.154Z,241.24
2023-05-09T01:13:22.261Z,240.58
2023-05-09T01:14:22.211Z,241.17
2023-05-09T01:15:22.228Z,241.84
2023-05-09T01:16:22.304Z,242.89
2023-05-09T01:17:22.336Z,243.59
2023-05-09T01:18:22.407Z,241.28
2023-05-09T01:19:22.450Z,241.03
2023-05-09T01:20:22.523Z,241.32
2023-05-09T01:21:22.554Z,241.70
2023-05-09T01:22:22.600Z,242.80
2023-05-09T01:23:22.650Z,242.49
2023-05-09T01:24:22.699Z,241.25
2023-05-09T01:25:22.789Z,239.78
2023-05-09T01:26:22.750Z,240.31
2023-05-09T01:27:22.797Z,241.16
2023-05-09T01:28:22.824Z,241.26
2023-05-09T01:29:22.890Z,241.56
2023-05-09T01:30:22.925Z,241.84
2023-05-09T01:31:23.025Z,242.10
2023-05-09T01:32:23.116Z,241.66
2023-05-09T01:33:23.120Z,240.58
2023-05-09T01:34:23.159Z,240.10
2023-05-09T01:35:23.232Z,241.98
2023-05-09T01:36:23.254Z,242.04
2023-05-09T01:37:23.342Z,241.59
2023-05-09T01:38:23.376Z,241.75
2023-05-09T01:39:23.463Z,241.63
2023-05-09T01:40:23.510Z,240.74
2023-05-09T01:41:23.644Z,241.27
2023-05-09T01:42:23.520Z,242.61
2023-05-09T01:43:23.607Z,242.84
2023-05-09T01:44:23.639Z,242.23
2023-05-09T01:45:23.690Z,242.09
2023-05-09T01:46:23.721Z,242.68
2023-05-09T01:47:23.717Z,241.08
2023-05-09T01:48:23.744Z,241.59
2023-05-09T01:49:23.774Z,241.81
2023-05-09T01:50:23.860Z,240.20
2023-05-09T01:51:23.870Z,242.09
2023-05-09T01:52:23.882Z,241.07
2023-05-09T01:53:23.902Z,239.86
2023-05-09T01:54:23.940Z,240.10
2023-05-09T01:55:24.006Z,240.20
2023-05-09T01:56:24.053Z,239.96
2023-05-09T01:57:24.149Z,242.18
2023-05-09T01:58:24.128Z,241.16
2023-05-09T01:59:24.158Z,241.78
2023-05-09T02:00:24.249Z,240.36
2023-05-09T02:01:24.398Z,240.76
2023-05-09T02:02:24.472Z,241.45
2023-05-09T02:03:24.433Z,241.77
2023-05-09T02:04:24.414Z,241.96
2023-05-09T02:05:24.452Z,240.71
2023-05-09T02:06:24.495Z,241.17
2023-05-09T02:07:24.547Z,241.27
2023-05-09T02:08:24.536Z,240.78
2023-05-09T02:09:24.609Z,239.71
2023-05-09T02:10:24.618Z,240.86
2023-05-09T02:11:24.704Z,241.51
2023-05-09T02:12:24.699Z,241.73
2023-05-09T02:13:24.932Z,241.66
2023-05-09T02:14:24.757Z,240.75
2023-05-09T02:15:24.811Z,241.35
2023-05-09T02:16:24.886Z,241.15
2023-05-09T02:17:24.888Z,241.67
2023-05-09T02:18:24.927Z,241.33
2023-05-09T02:19:24.916Z,241.60
2023-05-09T02:20:24.955Z,241.82
2023-05-09T02:21:25.894Z,241.52
2023-05-09T02:22:25.041Z,241.41
2023-05-09T02:23:25.040Z,240.68
2023-05-09T02:24:25.081Z,240.80
2023-05-09T02:25:25.136Z,240.97
2023-05-09T02:26:25.175Z,240.58
2023-05-09T02:27:25.179Z,240.45
2023-05-09T02:28:25.224Z,240.35
2023-05-09T02:29:25.368Z,240.72
2023-05-09T02:30:25.502Z,240.22
2023-05-09T02:31:25.359Z,239.49
2023-05-09T02:32:25.362Z,240.31
2023-05-09T02:33:25.381Z,240.80
2023-05-09T02:34:25.412Z,241.25
2023-05-09T02:35:25.469Z,241.18
2023-05-09T02:36:25.502Z,241.25
2023-05-09T02:37:25.570Z,240.88
2023-05-09T02:38:25.556Z,240.35
2023-05-09T02:39:25.634Z,241.00
2023-05-09T02:40:25.639Z,240.97
2023-05-09T02:41:25.724Z,241.54
2023-05-09T02:42:25.716Z,241.60
2023-05-09T02:43:25.766Z,240.92
2023-05-09T02:44:25.776Z,240.73
2023-05-09T02:45:25.958Z,240.23
2023-05-09T02:46:25.979Z,240.46
2023-05-09T02:47:25.930Z,240.97
2023-05-09T02:48:25.941Z,240.60
2023-05-09T02:49:31.883Z,239.15
2023-05-09T02:50:27.008Z,239.34
2023-05-09T02:51:25.956Z,239.71
2023-05-09T02:52:25.951Z,240.05
2023-05-09T02:53:25.943Z,239.76
2023-05-09T02:54:25.956Z,241.45
2023-05-09T02:55:25.943Z,240.94
2023-05-09T02:56:25.968Z,240.84
2023-05-09T02:57:25.921Z,240.11
2023-05-09T02:58:25.935Z,240.19
2023-05-09T02:59:25.907Z,240.43
2023-05-09T03:00:25.932Z,241.01
2023-05-09T03:01:26.130Z,241.66
2023-05-09T03:02:26.060Z,242.73
2023-05-09T03:03:26.071Z,242.14
2023-05-09T03:04:26.058Z,242.04
2023-05-09T03:05:26.129Z,241.09
2023-05-09T03:06:26.133Z,241.43
2023-05-09T03:07:26.225Z,240.36
2023-05-09T03:08:26.218Z,240.76
2023-05-09T03:09:26.251Z,241.68
2023-05-09T03:10:26.266Z,239.93
2023-05-09T03:11:26.341Z,242.02
2023-05-09T03:12:26.391Z,241.57
2023-05-09T03:13:26.499Z,240.79
2023-05-09T03:14:26.456Z,240.69
2023-05-09T03:15:26.618Z,240.32
2023-05-09T03:16:26.632Z,240.34
2023-05-09T03:17:26.705Z,240.54
2023-05-09T03:18:26.659Z,239.33
2023-05-09T03:19:26.656Z,238.80
2023-05-09T03:20:26.702Z,239.82
2023-05-09T03:21:26.754Z,240.62
2023-05-09T03:22:26.861Z,240.78
2023-05-09T03:23:26.928Z,240.49
2023-05-09T03:24:26.962Z,239.26
2023-05-09T03:25:27.060Z,240.75
2023-05-09T03:26:27.093Z,240.74
2023-05-09T03:27:27.157Z,239.02
2023-05-09T03:28:27.166Z,239.00
2023-05-09T03:29:27.232Z,240.51
2023-05-09T03:30:27.290Z,239.13
2023-05-09T03:31:27.305Z,239.68
2023-05-09T03:32:27.434Z,239.58
2023-05-09T03:33:27.497Z,239.96
2023-05-09T03:34:27.446Z,240.32
2023-05-09T03:35:27.494Z,239.28
2023-05-09T03:36:27.570Z,238.93
2023-05-09T03:37:27.607Z,239.93
2023-05-09T03:38:27.683Z,242.28
2023-05-09T03:39:27.715Z,238.78
2023-05-09T03:40:27.767Z,238.89
2023-05-09T03:41:27.806Z,239.79
2023-05-09T03:42:27.889Z,239.77
2023-05-09T03:43:27.888Z,239.43
2023-05-09T03:44:27.934Z,241.83
2023-05-09T03:45:27.983Z,240.71
2023-05-09T03:46:28.052Z,241.16
2023-05-09T03:47:28.138Z,238.73
2023-05-09T03:48:28.122Z,239.29
2023-05-09T03:49:28.215Z,241.14
2023-05-09T03:50:28.174Z,240.58
2023-05-09T03:51:28.226Z,240.36
2023-05-09T03:52:28.251Z,238.88
2023-05-09T03:53:28.307Z,238.43
2023-05-09T03:54:28.351Z,240.18
2023-05-09T03:55:28.392Z,238.52
2023-05-09T03:56:28.415Z,238.46
2023-05-09T03:57:28.529Z,238.02
2023-05-09T03:58:28.497Z,240.34
2023-05-09T03:59:28.620Z,239.35
2023-05-09T04:00:28.582Z,239.64
2023-05-09T04:01:28.623Z,238.72
2023-05-09T04:02:28.768Z,238.26
2023-05-09T04:03:28.802Z,238.66
2023-05-09T04:04:28.811Z,237.34
2023-05-09T04:05:28.941Z,237.99
2023-05-09T04:06:28.902Z,237.43
2023-05-09T04:07:28.942Z,235.13
2023-05-09T04:08:28.991Z,234.85
2023-05-09T04:09:29.046Z,232.26
2023-05-09T04:10:29.096Z,230.77
2023-05-09T04:11:29.149Z,228.17
2023-05-09T04:12:29.171Z,227.99
2023-05-09T04:13:29.274Z,226.63
2023-05-09T04:14:29.222Z,223.99
2023-05-09T04:15:29.347Z,222.24
2023-05-09T04:16:29.368Z,220.67
2023-05-09T04:17:29.371Z,216.71
2023-05-09T04:18:29.403Z,216.59
2023-05-09T04:19:29.427Z,217.20
2023-05-09T04:20:29.445Z,214.78
2023-05-09T04:21:29.578Z,213.29
2023-05-09T04:22:29.532Z,212.43
2023-05-09T04:23:29.571Z,211.25
2023-05-09T04:24:29.579Z,211.26
2023-05-09T04:25:29.615Z,211.08
2023-05-09T04:26:29.634Z,208.72
2023-05-09T04:27:29.702Z,207.37
2023-05-09T04:28:29.738Z,206.81
2023-05-09T04:29:29.751Z,206.43
2023-05-09T04:30:29.796Z,207.81
2023-05-09T04:31:29.886Z,205.96
2023-05-09T04:32:29.918Z,203.21
2023-05-09T04:33:29.968Z,202.75
2023-05-09T04:34:30.046Z,202.43
2023-05-09T04:35:30.095Z,201.13
2023-05-09T04:36:30.131Z,202.35
2023-05-09T04:37:30.229Z,201.35
2023-05-09T04:38:30.208Z,200.32
2023-05-09T04:39:30.249Z,201.88
2023-05-09T04:40:30.336Z,199.76
2023-05-09T04:41:30.339Z,199.21
2023-05-09T04:42:30.404Z,199.84
2023-05-09T04:43:30.450Z,200.53
2023-05-09T04:44:30.520Z,199.69
2023-05-09T04:45:30.551Z,199.14
2023-05-09T04:46:30.642Z,199.31
2023-05-09T04:47:30.664Z,199.56
2023-05-09T04:48:30.645Z,198.99
2023-05-09T04:49:30.718Z,198.87
2023-05-09T04:50:30.761Z,199.43
2023-05-09T04:51:30.827Z,201.42
2023-05-09T04:52:30.893Z,201.05
2023-05-09T04:53:31.018Z,199.55
2023-05-09T04:54:30.996Z,199.03
2023-05-09T04:55:31.037Z,199.97
2023-05-09T04:56:31.112Z,199.27
2023-05-09T04:57:31.137Z,200.20
2023-05-09T04:58:31.220Z,201.05
2023-05-09T04:59:31.222Z,199.98
2023-05-09T05:00:31.243Z,199.07
2023-05-09T05:01:31.369Z,199.51
2023-05-09T05:02:31.383Z,199.90
2023-05-09T05:03:31.418Z,198.84
2023-05-09T05:04:31.429Z,199.47
2023-05-09T05:05:33.683Z,199.18
2023-05-09T05:06:31.475Z,201.43
2023-05-09T05:07:31.448Z,200.19
2023-05-09T05:08:31.452Z,199.49
2023-05-09T05:09:31.556Z,198.37
2023-05-09T05:10:31.422Z,198.71
2023-05-09T05:11:31.387Z,199.14
2023-05-09T05:12:31.390Z,199.45
2023-05-09T05:13:31.398Z,198.18
2023-05-09T05:14:31.390Z,198.15
2023-05-09T05:15:31.401Z,197.36
2023-05-09T05:16:31.402Z,198.11
2023-05-09T05:17:31.426Z,198.31
2023-05-09T05:18:31.368Z,198.97
2023-05-09T05:19:31.364Z,197.20
2023-05-09T05:20:31.378Z,198.71
2023-05-09T05:21:31.332Z,198.03
2023-05-09T05:22:32.793Z,197.88
2023-05-09T05:23:31.341Z,197.85
2023-05-09T05:24:31.351Z,197.42
2023-05-09T05:25:31.403Z,197.17
2023-05-09T05:26:31.303Z,197.92
2023-05-09T05:27:31.337Z,195.95
2023-05-09T05:28:31.332Z,196.76
2023-05-09T05:29:31.264Z,196.35
2023-05-09T05:30:34.008Z,196.15
2023-05-09T05:31:31.281Z,199.86
2023-05-09T05:32:31.318Z,197.99
2023-05-09T05:33:31.985Z,202.82
2023-05-09T05:34:31.313Z,215.00
2023-05-09T05:35:31.285Z,219.80
2023-05-09T05:36:31.242Z,223.16
2023-05-09T05:37:31.247Z,230.82
2023-05-09T05:38:31.246Z,237.71
2023-05-09T05:39:31.202Z,245.65
2023-05-09T05:40:31.558Z,246.02
2023-05-09T05:41:31.291Z,245.06
2023-05-09T05:42:31.198Z,241.35
2023-05-09T05:43:31.176Z,246.09
2023-05-09T05:44:31.171Z,250.00
2023-05-09T05:45:31.244Z,248.97
2023-05-09T05:46:31.153Z,250.00
2023-05-09T05:47:31.207Z,250.00
2023-05-09T05:48:31.168Z,249.68
2023-05-09T05:49:31.183Z,249.81
2023-05-09T05:50:31.209Z,247.35
2023-05-09T05:51:31.118Z,247.47
2023-05-09T05:52:31.128Z,246.27
2023-05-09T05:53:32.696Z,247.60
2023-05-09T05:54:31.132Z,248.11
2023-05-09T05:55:31.560Z,250.00
2023-05-09T05:56:31.130Z,249.67
2023-05-09T05:57:31.128Z,249.46
2023-05-09T05:58:31.089Z,249.71
2023-05-09T05:59:31.108Z,249.39
2023-05-09T06:00:31.142Z,249.81
2023-05-09T06:01:31.099Z,244.85
2023-05-09T06:02:31.149Z,244.04
2023-05-09T06:03:31.155Z,243.63
2023-05-09T06:04:31.031Z,242.44
2023-05-09T06:05:31.051Z,241.89
2023-05-09T06:06:31.021Z,239.17
2023-05-09T06:07:31.020Z,239.75
2023-05-09T06:08:31.047Z,242.26
2023-05-09T06:09:30.986Z,245.44
2023-05-09T06:10:31.033Z,246.27
2023-05-09T06:11:31.022Z,249.50
2023-05-09T06:12:31.488Z,250.00
2023-05-09T06:13:31.110Z,246.21
2023-05-09T06:14:30.959Z,249.81
2023-05-09T06:15:30.979Z,248.78
2023-05-09T06:16:31.001Z,246.74
2023-05-09T06:17:30.970Z,245.08
2023-05-09T06:18:31.061Z,243.23
2023-05-09T06:19:30.930Z,241.53
2023-05-09T06:20:30.944Z,237.80
2023-05-09T06:21:30.977Z,237.05
2023-05-09T06:22:30.931Z,236.93
2023-05-09T06:23:30.929Z,239.07
2023-05-09T06:24:35.731Z,239.30
2023-05-09T06:25:31.882Z,239.45
2023-05-09T06:26:30.906Z,239.56
2023-05-09T06:27:30.867Z,239.96
2023-05-09T06:28:30.900Z,239.75
2023-05-09T06:29:31.041Z,240.43
2023-05-09T06:30:30.864Z,239.42
2023-05-09T06:31:30.949Z,239.36
2023-05-09T06:32:30.950Z,237.45
2023-05-09T06:33:30.873Z,239.41
2023-05-09T06:34:30.867Z,240.34
2023-05-09T06:35:31.083Z,237.12
2023-05-09T06:36:30.852Z,238.89
2023-05-09T06:37:30.928Z,233.94
2023-05-09T06:38:30.825Z,231.70
2023-05-09T06:39:30.793Z,233.70
2023-05-09T06:40:30.797Z,227.43
2023-05-09T06:41:30.842Z,222.68
2023-05-09T06:42:30.778Z,215.24
2023-05-09T06:43:30.804Z,213.98
2023-05-09T06:44:30.832Z,209.30
2023-05-09T06:45:30.953Z,207.80
2023-05-09T06:46:30.811Z,199.12
2023-05-09T06:47:30.829Z,195.38
2023-05-09T06:48:30.757Z,193.90
2023-05-09T06:49:30.782Z,205.11
2023-05-09T06:50:32.770Z,207.00
2023-05-09T06:51:30.744Z,210.92
2023-05-09T06:52:30.781Z,213.23
2023-05-09T06:53:30.762Z,215.34
2023-05-09T06:54:30.799Z,217.51
2023-05-09T06:55:30.816Z,220.88
2023-05-09T06:56:30.818Z,223.51
2023-05-09T06:57:30.812Z,226.04
2023-05-09T06:58:31.104Z,226.70
2023-05-09T06:59:30.845Z,226.99
2023-05-09T07:00:31.042Z,228.48
2023-05-09T07:01:30.988Z,229.05
2023-05-09T07:02:30.925Z,228.83
2023-05-09T07:03:30.906Z,227.32
2023-05-09T07:04:30.944Z,226.82
2023-05-09T07:05:30.999Z,228.51
2023-05-09T07:06:30.916Z,228.15
2023-05-09T07:07:30.932Z,231.83
2023-05-09T07:08:30.955Z,232.75
2023-05-09T07:09:31.522Z,235.20
2023-05-09T07:10:31.056Z,233.73
2023-05-09T07:11:31.073Z,236.98
2023-05-09T07:12:31.095Z,238.46
2023-05-09T07:13:31.071Z,237.19
2023-05-09T07:14:31.087Z,239.26
2023-05-09T07:15:41.397Z,240.88
2023-05-09T07:16:32.104Z,241.12
2023-05-09T07:17:31.147Z,242.03
2023-05-09T07:18:31.075Z,242.73
2023-05-09T07:19:31.031Z,243.45
2023-05-09T07:20:31.033Z,249.39
2023-05-09T07:21:31.036Z,249.58
2023-05-09T07:22:32.129Z,249.75
2023-05-09T07:23:31.012Z,247.89
2023-05-09T07:24:31.061Z,249.19
2023-05-09T07:25:31.566Z,248.10
2023-05-09T07:26:31.167Z,250.25
2023-05-09T07:27:31.207Z,249.10
2023-05-09T07:28:31.273Z,250.00
2023-05-09T07:29:31.321Z,245.27
2023-05-09T07:30:31.429Z,248.27
2023-05-09T07:31:31.439Z,247.68
2023-05-09T07:32:31.557Z,248.37
2023-05-09T07:33:31.618Z,248.82
2023-05-09T07:34:31.561Z,247.33
2023-05-09T07:35:32.055Z,249.79
2023-05-09T07:36:33.620Z,245.93
2023-05-09T07:37:31.629Z,249.00
2023-05-09T07:38:31.624Z,245.81
2023-05-09T07:39:31.690Z,245.29
2023-05-09T07:40:31.643Z,245.17
2023-05-09T07:41:32.057Z,242.08
2023-05-09T07:42:31.616Z,244.71
2023-05-09T07:43:31.601Z,243.58
2023-05-09T07:44:31.588Z,239.32
2023-05-09T07:45:31.632Z,243.73
2023-05-09T07:46:32.074Z,243.04
2023-05-09T07:47:31.594Z,241.30
2023-05-09T07:48:31.589Z,243.00
2023-05-09T07:49:31.722Z,241.21
2023-05-09T07:50:31.586Z,238.75
2023-05-09T07:51:32.052Z,237.39
2023-05-09T07:52:31.547Z,235.27
2023-05-09T07:53:31.537Z,232.07
2023-05-09T07:54:31.517Z,235.90
2023-05-09T07:55:31.521Z,231.37
2023-05-09T07:56:31.579Z,232.27
2023-05-09T07:57:31.568Z,234.23
2023-05-09T07:58:31.534Z,233.54
2023-05-09T07:59:31.506Z,229.88
2023-05-09T08:00:31.496Z,232.77
2023-05-09T08:01:31.502Z,235.85
2023-05-09T08:02:31.532Z,230.38
2023-05-09T08:03:31.609Z,230.65
2023-05-09T08:04:31.500Z,233.39
2023-05-09T08:05:31.561Z,232.93
2023-05-09T08:06:31.481Z,233.59
2023-05-09T08:07:31.450Z,232.55
2023-05-09T08:08:31.437Z,233.46
2023-05-09T08:09:31.424Z,232.86
2023-05-09T08:10:31.378Z,233.05
2023-05-09T08:11:31.399Z,232.29
2023-05-09T08:12:32.016Z,230.97
2023-05-09T08:13:31.650Z,224.73
2023-05-09T08:14:31.401Z,223.14
2023-05-09T08:15:31.396Z,222.22
2023-05-09T08:16:31.383Z,224.32
2023-05-09T08:17:31.421Z,222.91
2023-05-09T08:18:31.445Z,222.70
2023-05-09T08:19:31.345Z,218.11
2023-05-09T08:20:31.429Z,217.79
2023-05-09T08:21:31.458Z,219.90
2023-05-09T08:22:31.374Z,219.35
2023-05-09T08:23:31.408Z,215.62
2023-05-09T08:24:31.454Z,224.79
2023-05-09T08:25:31.582Z,226.19
2023-05-09T08:26:32.294Z,222.79
2023-05-09T08:27:32.610Z,224.80
2023-05-09T08:28:32.572Z,205.62
2023-05-09T08:29:31.756Z,195.88
2023-05-09T08:30:33.060Z,178.92
2023-05-09T08:31:31.855Z,175.91
2023-05-09T08:32:31.780Z,161.09
2023-05-09T08:33:31.808Z,153.58
2023-05-09T08:34:31.782Z,144.92
2023-05-09T08:35:31.852Z,133.69
2023-05-09T08:36:31.821Z,131.42
2023-05-09T08:37:31.991Z,125.33
2023-05-09T08:38:31.910Z,114.39
2023-05-09T08:39:31.952Z,111.45
2023-05-09T08:40:31.950Z,107.84
2023-05-09T08:41:32.086Z,112.30
2023-05-09T08:42:32.018Z,100.82
2023-05-09T08:43:32.181Z,108.87
2023-05-09T08:44:32.646Z,129.20
2023-05-09T08:45:32.138Z,131.07
2023-05-09T08:46:32.266Z,129.46
2023-05-09T08:47:32.262Z,116.65
2023-05-09T08:48:34.028Z,121.23
2023-05-09T08:49:32.272Z,122.83
2023-05-09T08:50:32.275Z,122.70
2023-05-09T08:51:33.483Z,126.61
2023-05-09T08:52:32.312Z,134.99
2023-05-09T08:53:32.377Z,134.97
2023-05-09T08:54:32.557Z,127.41
2023-05-09T08:55:32.584Z,128.65
2023-05-09T08:56:32.299Z,119.91
2023-05-09T08:57:32.238Z,116.06
2023-05-09T08:58:34.149Z,107.34
2023-05-09T08:59:32.645Z,115.87
2023-05-09T09:00:32.210Z,112.08
2023-05-09T09:01:32.229Z,101.10
2023-05-09T09:02:32.275Z,110.54
2023-05-09T09:03:32.237Z,114.36
2023-05-09T09:04:32.225Z,122.48
2023-05-09T09:05:41.426Z,115.68
2023-05-09T09:06:33.200Z,115.94
2023-05-09T09:07:32.282Z,116.20
2023-05-09T09:08:32.176Z,112.92
2023-05-09T09:09:32.301Z,113.56
2023-05-09T09:10:32.685Z,119.82
2023-05-09T09:11:32.111Z,103.90
2023-05-09T09:12:32.114Z,116.19
2023-05-09T09:13:32.246Z,122.71
2023-05-09T09:14:32.264Z,121.02
2023-05-09T09:15:32.128Z,108.19
2023-05-09T09:16:32.710Z,111.03
2023-05-09T09:17:32.195Z,108.36
2023-05-09T09:18:32.210Z,91.71
2023-05-09T09:19:32.283Z,90.56
2023-05-09T09:20:32.304Z,94.72
2023-05-09T09:21:32.337Z,97.95
2023-05-09T09:22:32.384Z,107.72
2023-05-09T09:23:32.424Z,110.33
2023-05-09T09:24:32.605Z,111.18
2023-05-09T09:25:32.649Z,101.66
2023-05-09T09:26:32.608Z,94.40
2023-05-09T09:27:32.615Z,95.81
2023-05-09T09:28:32.671Z,94.13
2023-05-09T09:29:32.741Z,87.39
2023-05-09T09:30:32.793Z,67.35
2023-05-09T09:31:33.174Z,71.01
2023-05-09T09:32:33.083Z,82.79
2023-05-09T09:33:32.906Z,79.67
2023-05-09T09:34:32.984Z,90.52
2023-05-09T09:35:32.972Z,96.52
2023-05-09T09:36:33.155Z,99.39
2023-05-09T09:37:33.021Z,99.16
2023-05-09T09:38:33.045Z,96.77
2023-05-09T09:39:33.106Z,95.36
2023-05-09T09:40:33.247Z,97.64
2023-05-09T09:41:33.187Z,98.74
2023-05-09T09:42:33.183Z,101.31
2023-05-09T09:43:33.261Z,101.76
2023-05-09T09:44:33.680Z,97.21
2023-05-09T09:45:33.278Z,100.82
2023-05-09T09:46:33.365Z,96.28
2023-05-09T09:47:33.676Z,94.74
2023-05-09T09:48:33.389Z,93.74
2023-05-09T09:49:33.398Z,96.13
2023-05-09T09:50:33.497Z,92.53
2023-05-09T09:51:33.510Z,89.91
2023-05-09T09:52:33.445Z,89.09
2023-05-09T09:53:33.447Z,93.30
2023-05-09T09:54:33.453Z,91.15
2023-05-09T09:55:33.445Z,94.43
2023-05-09T09:56:33.485Z,91.94
2023-05-09T09:57:33.561Z,93.36
2023-05-09T09:58:33.476Z,96.57
2023-05-09T09:59:33.489Z,96.78
2023-05-09T10:00:33.498Z,91.37
2023-05-09T10:01:33.584Z,93.88
2023-05-09T10:02:33.553Z,88.37
2023-05-09T10:03:33.550Z,87.64
2023-05-09T10:04:33.515Z,89.68
2023-05-09T10:05:33.580Z,88.12
2023-05-09T10:06:33.595Z,87.10
2023-05-09T10:07:33.594Z,84.06
2023-05-09T10:08:33.625Z,85.02
2023-05-09T10:09:33.617Z,81.99
2023-05-09T10:10:33.639Z,85.24
2023-05-09T10:11:34.143Z,83.47
2023-05-09T10:12:33.660Z,90.07
2023-05-09T10:13:33.765Z,97.69
2023-05-09T10:14:35.128Z,97.34
2023-05-09T10:15:45.123Z,101.82
2023-05-09T10:16:43.787Z,102.04
2023-05-09T10:17:34.844Z,102.16
2023-05-09T10:18:33.906Z,103.60
2023-05-09T10:19:33.715Z,105.35
2023-05-09T10:20:33.686Z,105.07
2023-05-09T10:21:33.638Z,111.28
2023-05-09T10:22:33.652Z,109.74
2023-05-09T10:23:33.653Z,104.68
2023-05-09T10:24:33.625Z,102.66
2023-05-09T10:25:33.632Z,102.63
2023-05-09T10:26:33.634Z,101.18
2023-05-09T10:27:33.628Z,100.16
2023-05-09T10:28:33.588Z,103.51
2023-05-09T10:29:33.675Z,105.45
2023-05-09T10:30:34.082Z,105.52
2023-05-09T10:31:33.591Z,102.41
2023-05-09T10:32:33.611Z,109.47
2023-05-09T10:33:33.568Z,105.31
2023-05-09T10:34:33.579Z,108.49
2023-05-09T10:35:33.546Z,111.40
2023-05-09T10:36:33.553Z,113.58
2023-05-09T10:37:33.706Z,114.83
2023-05-09T10:38:33.530Z,112.01
2023-05-09T10:39:33.521Z,110.68
2023-05-09T10:40:33.531Z,116.47
2023-05-09T10:41:33.519Z,113.56
2023-05-09T10:42:33.533Z,118.89
2023-05-09T10:43:34.779Z,117.30
2023-05-09T10:44:33.663Z,119.95
2023-05-09T10:45:33.753Z,118.02
2023-05-09T10:46:33.718Z,119.09
2023-05-09T10:47:33.745Z,117.77
2023-05-09T10:48:33.730Z,115.77
2023-05-09T10:49:35.532Z,115.69
2023-05-09T10:50:33.729Z,114.51
2023-05-09T10:51:33.717Z,114.37
2023-05-09T10:52:33.712Z,118.70
2023-05-09T10:53:33.711Z,119.55
2023-05-09T10:54:33.744Z,124.22
2023-05-09T10:55:33.740Z,123.90
2023-05-09T10:56:33.671Z,121.74
2023-05-09T10:57:33.685Z,121.80
2023-05-09T10:58:33.761Z,123.52
2023-05-09T10:59:33.656Z,123.22
2023-05-09T11:00:33.676Z,123.46
2023-05-09T11:01:33.784Z,122.19
2023-05-09T11:02:33.635Z,118.78
2023-05-09T11:03:33.668Z,120.23
2023-05-09T11:04:33.617Z,120.63
2023-05-09T11:05:33.630Z,122.46
2023-05-09T11:06:33.590Z,120.96
2023-05-09T11:07:33.606Z,120.65
2023-05-09T11:08:33.606Z,119.87
2023-05-09T11:09:33.644Z,121.91
2023-05-09T11:10:33.561Z,118.87
2023-05-09T11:11:33.557Z,121.22
2023-05-09T11:12:33.585Z,122.75
2023-05-09T11:13:33.693Z,122.12
2023-05-09T11:14:33.563Z,121.71
2023-05-09T11:15:33.572Z,121.19
2023-05-09T11:16:33.566Z,117.83
2023-05-09T11:17:33.755Z,122.13
2023-05-09T11:18:33.513Z,120.95
2023-05-09T11:19:33.550Z,118.45
2023-05-09T11:20:33.704Z,119.22
2023-05-09T11:21:33.542Z,116.18
2023-05-09T11:22:33.652Z,119.34
2023-05-09T11:23:33.657Z,119.78
2023-05-09T11:24:33.688Z,119.23
2023-05-09T11:25:33.495Z,118.89
2023-05-09T11:26:33.484Z,119.19
2023-05-09T11:27:33.480Z,119.55
2023-05-09T11:28:33.477Z,119.21
2023-05-09T11:29:33.487Z,117.84
2023-05-09T11:30:33.507Z,116.20
2023-05-09T11:31:33.555Z,120.56
2023-05-09T11:32:33.444Z,117.62
2023-05-09T11:33:33.429Z,117.72
2023-05-09T11:34:33.431Z,120.59
2023-05-09T11:35:33.442Z,119.07
2023-05-09T11:36:33.584Z,119.21
2023-05-09T11:37:33.466Z,119.69
2023-05-09T11:38:33.438Z,117.71
2023-05-09T11:39:33.383Z,120.11
2023-05-09T11:40:33.472Z,119.28
2023-05-09T11:41:33.367Z,117.00
2023-05-09T11:42:33.359Z,118.26
2023-05-09T11:43:33.341Z,117.56
2023-05-09T11:44:33.437Z,117.23
2023-05-09T11:45:33.531Z,119.73
2023-05-09T11:46:33.370Z,117.58
2023-05-09T11:47:33.409Z,116.01
2023-05-09T11:48:33.350Z,113.70
2023-05-09T11:49:33.432Z,112.69
2023-05-09T11:50:33.359Z,109.34
2023-05-09T11:51:33.281Z,112.01
2023-05-09T11:52:33.373Z,107.78
2023-05-09T11:53:33.322Z,107.44
2023-05-09T11:54:33.322Z,108.00
2023-05-09T11:55:33.282Z,107.49
2023-05-09T11:56:33.284Z,108.80
2023-05-09T11:57:33.259Z,109.65
2023-05-09T11:58:33.309Z,109.94
2023-05-09T11:59:33.247Z,105.28
2023-05-09T12:00:33.283Z,105.32
2023-05-09T12:01:33.224Z,108.62
2023-05-09T12:02:33.387Z,105.12
2023-05-09T12:03:33.298Z,103.83
2023-05-09T12:04:33.252Z,103.85
2023-05-09T12:05:33.233Z,102.07
2023-05-09T12:06:33.191Z,104.57
2023-05-09T12:07:33.193Z,99.31
2023-05-09T12:08:33.212Z,101.21
2023-05-09T12:09:33.182Z,101.58
2023-05-09T12:10:33.180Z,101.72
2023-05-09T12:11:33.167Z,99.32
2023-05-09T12:12:33.167Z,99.29
2023-05-09T12:13:33.191Z,96.18
2023-05-09T12:14:33.161Z,101.88
2023-05-09T12:15:33.105Z,99.51
2023-05-09T12:16:33.172Z,100.44
2023-05-09T12:17:33.199Z,99.74
2023-05-09T12:18:33.112Z,101.53
2023-05-09T12:19:33.109Z,99.90
2023-05-09T12:20:33.105Z,103.64
2023-05-09T12:21:33.176Z,100.23
2023-05-09T12:22:33.118Z,101.10
2023-05-09T12:23:33.151Z,101.80
2023-05-09T12:24:33.110Z,98.06
2023-05-09T12:25:33.082Z,99.64
2023-05-09T12:26:33.057Z,97.67
2023-05-09T12:27:33.117Z,102.12
2023-05-09T12:28:33.032Z,97.83
2023-05-09T12:29:33.104Z,93.74
2023-05-09T12:30:33.055Z,99.09